»·PEaware :: N46420 KSBA-KBUR

N46420 :: KSBA-KBUR

FLIGHT INFORMATION

Flight Status: Arrived
Operator: Privately registered:
United States
More flights under this callsign
Pilot: Nickolaus B. (17683)
Aircraft: CESSNA 172 SKYHAWK
(C172)
More flights by this aircraft type
Origin: KSBA Santa Barbara Mun
United States
Destination: KBUR Bob Hope-Burbank
United States
More flights between these airports :: More routes between these airports
Route:
File this flight plan on PilotEdge
Remarks: CAT-8 Simulating VFR at SBA
Altitude:
(Current/Filed)
7,500ft
Speed:
(Current/Filed)
130kts
Departed: 30-Dec-17 10:28 PM
Arrived: 30-Dec-17 11:12 PM
Distance/Time
Traveled:
74nm/0:44
Distance/Time
To Go:
Arrived

Flight Plot

Page will automatically refresh every two minutes.


Map Options




Map Legend


Flown Route
Filed Route
Departure Airport
Arrival Airport
Navaid (VOR, NDB)
Fix

Horizontal Profiles

Position Reports

Time Latitude Longitude Heading Altitude Ground
Speed
30-Dec-17 22:23 34.422664 -119.835593 340 10ft 0kts
30-Dec-17 22:24 34.422664 -119.835593 340 10ft 0kts
30-Dec-17 22:25 34.422664 -119.835593 340 10ft 0kts
30-Dec-17 22:26 34.422664 -119.835593 340 10ft 0kts
30-Dec-17 22:27 34.422664 -119.835593 340 10ft 0kts
30-Dec-17 22:28 34.422664 -119.835593 340 10ft 0kts
30-Dec-17 22:29 34.422718 -119.836947 285 12ft 4kts
30-Dec-17 22:30 34.425003 -119.837822 348 13ft 19kts
30-Dec-17 22:31 34.426739 -119.836383 90 10ft 17kts
30-Dec-17 22:32 34.427110 -119.834616 359 10ft 0kts
30-Dec-17 22:33 34.427242 -119.834620 357 10ft 7kts
30-Dec-17 22:34 34.426640 -119.854038 266 226ft 106kts
30-Dec-17 22:35 34.425644 -119.891655 267 818ft 114kts
30-Dec-17 22:36 34.424769 -119.930035 267 1419ft 113kts
30-Dec-17 22:37 34.423001 -119.965419 234 2263ft 99kts
30-Dec-17 22:38 34.409877 -119.953977 73 3259ft 85kts
30-Dec-17 22:39 34.413158 -119.927212 86 4206ft 80kts
30-Dec-17 22:40 34.412848 -119.905959 92 4914ft 80kts
30-Dec-17 22:41 34.410735 -119.879473 96 5602ft 91kts
30-Dec-17 22:42 34.407400 -119.850572 94 6239ft 99kts
30-Dec-17 22:43 34.403299 -119.818517 94 7021ft 94kts
30-Dec-17 22:44 34.399016 -119.786077 96 7513ft 114kts
30-Dec-17 22:45 34.393333 -119.745426 96 7509ft 126kts
30-Dec-17 22:46 34.387519 -119.703260 96 7509ft 127kts
30-Dec-17 22:47 34.381724 -119.660960 96 7509ft 127kts
30-Dec-17 22:48 34.375909 -119.618519 96 7510ft 127kts
30-Dec-17 22:49 34.370095 -119.576143 96 7510ft 127kts
30-Dec-17 22:50 34.364271 -119.533820 96 7511ft 128kts
30-Dec-17 22:51 34.358407 -119.491307 96 7512ft 128kts
30-Dec-17 22:52 34.352471 -119.448408 97 7487ft 129kts
30-Dec-17 22:53 34.346557 -119.405699 97 7488ft 128kts
30-Dec-17 22:54 34.340621 -119.362994 97 7489ft 129kts
30-Dec-17 22:55 34.334759 -119.320914 98 7489ft 129kts
30-Dec-17 22:56 34.328856 -119.278693 98 7490ft 129kts
30-Dec-17 22:57 34.322881 -119.236040 98 7490ft 129kts
30-Dec-17 22:58 34.316848 -119.193116 98 7490ft 129kts
30-Dec-17 22:59 34.310795 -119.150211 98 7490ft 130kts
30-Dec-17 23:00 34.304727 -119.107230 98 7490ft 130kts
30-Dec-17 23:01 34.298587 -119.063851 99 7490ft 130kts
30-Dec-17 23:02 34.292448 -119.020606 99 7490ft 130kts
30-Dec-17 23:03 34.286313 -118.977477 99 7491ft 131kts
30-Dec-17 23:04 34.280540 -118.933950 96 7491ft 131kts
30-Dec-17 23:05 34.275477 -118.890388 98 7491ft 131kts
30-Dec-17 23:06 34.269399 -118.847122 99 7509ft 131kts
30-Dec-17 23:07 34.263204 -118.803807 99 7509ft 131kts
30-Dec-17 23:08 34.256974 -118.760390 99 7509ft 131kts
30-Dec-17 23:09 34.250763 -118.717192 99 7509ft 130kts
30-Dec-17 23:10 34.241419 -118.674837 106 7509ft 130kts
30-Dec-17 23:11 34.230201 -118.631713 106 7123ft 149kts
30-Dec-17 23:12 34.217513 -118.582803 105 6081ft 154kts
30-Dec-17 23:13 34.204858 -118.533692 105 4984ft 151kts
30-Dec-17 23:14 34.198471 -118.487263 92 3886ft 136kts
30-Dec-17 23:15 34.198870 -118.440678 86 2752ft 135kts
30-Dec-17 23:16 34.198153 -118.400632 87 1541ft 104kts
30-Dec-17 23:17 34.197945 -118.374514 89 889ft 68kts
30-Dec-17 23:18 34.198889 -118.364615 358 723ft 10kts
30-Dec-17 23:19 34.200066 -118.364208 177 726ft 0kts

Navigation Log

Ident Type
1. KSBA Airport
2. KBUR Airport